Time;durP1;ratioP1;P1;durP2;ratioP2;P2;SDS_P1;SDS_P2;PMS_P1;PMS_P2;Temp;Humidity;BMP_temperature;BMP_pressure;BME280_temperature;BME280_humidity;BME280_pressure;Samples;Min_cycle;Max_cycle;Signal;HPM_P1;HPM_P2
2024/02/20 00:01:14;;;;;;;12.23;1.60;;;;;;;8.40;72.28;101459.19;4984631;28;20058;-47
2024/02/20 00:03:41;;;;;;;10.63;2.63;;;;;;;8.39;73.00;101460.03;4984860;28;20054;-48
2024/02/20 00:06:08;;;;;;;16.13;3.17;;;;;;;8.40;72.53;101472.09;4983267;28;20046;-51
2024/02/20 00:08:36;;;;;;;12.48;3.25;;;;;;;8.38;71.74;101473.78;4984951;28;20054;-48
2024/02/20 00:11:04;;;;;;;14.30;3.75;;;;;;;8.34;72.71;101466.75;4976721;28;20039;-45
2024/02/20 00:13:31;;;;;;;4.95;0.90;;;;;;;8.30;73.25;101470.06;4986485;28;20054;-51
2024/02/20 00:15:58;;;;;;;13.02;1.73;;;;;;;8.30;72.15;101467.50;4978836;28;20042;-49
2024/02/20 00:18:25;;;;;;;6.00;1.52;;;;;;;8.22;72.84;101463.00;4982326;28;20056;-48
2024/02/20 00:20:52;;;;;;;13.75;1.98;;;;;;;8.22;72.77;101468.16;4985411;28;20401;-43
2024/02/20 00:23:19;;;;;;;17.25;3.55;;;;;;;8.21;73.17;101453.50;4982113;28;20558;-47
2024/02/20 00:25:46;;;;;;;14.90;3.53;;;;;;;8.18;73.33;101455.97;4986181;28;20054;-47
2024/02/20 00:28:13;;;;;;;13.68;3.83;;;;;;;8.16;73.08;101457.66;4985720;28;20060;-48
2024/02/20 00:30:41;;;;;;;13.73;2.08;;;;;;;8.12;73.13;101445.47;4983704;28;20104;-46
2024/02/20 00:33:08;;;;;;;13.88;3.13;;;;;;;8.09;73.04;101442.81;4986911;28;20553;-45
2024/02/20 00:35:36;;;;;;;14.55;3.80;;;;;;;8.06;73.37;101451.34;4983235;28;20053;-43
2024/02/20 00:38:03;;;;;;;21.67;2.80;;;;;;;8.03;72.73;101451.22;4978889;28;20043;-43
2024/02/20 00:40:30;;;;;;;15.05;2.83;;;;;;;8.01;73.04;101441.69;4986372;28;20046;-45
2024/02/20 00:42:57;;;;;;;13.57;2.90;;;;;;;7.99;72.83;101457.13;4994036;28;20046;-45
2024/02/20 00:45:24;;;;;;;13.75;4.15;;;;;;;7.95;72.72;101461.34;4986321;28;20058;-49
2024/02/20 00:47:50;;;;;;;12.45;2.53;;;;;;;7.95;73.75;101463.91;4990958;28;20054;-45
2024/02/20 00:50:18;;;;;;;7.80;3.17;;;;;;;7.95;73.50;101463.91;4988990;28;20054;-45
2024/02/20 00:52:45;;;;;;;13.77;3.50;;;;;;;7.94;72.74;101472.47;4987980;28;20529;-48
2024/02/20 00:55:13;;;;;;;9.95;3.05;;;;;;;7.93;73.91;101457.81;4987365;28;20470;-47
2024/02/20 00:57:40;;;;;;;14.48;4.00;;;;;;;7.93;73.22;101449.19;4986387;28;20069;-50
2024/02/20 01:00:13;;;;;;;16.50;3.92;;;;;;;7.91;73.48;101456.88;4988714;28;20058;-49
2024/02/20 01:02:40;;;;;;;16.83;3.28;;;;;;;7.90;73.32;101460.28;4987645;28;20077;-48
2024/02/20 01:05:09;;;;;;;14.88;2.00;;;;;;;7.88;74.08;101451.66;4988810;28;20061;-52
2024/02/20 01:07:38;;;;;;;14.50;3.28;;;;;;;7.88;73.82;101451.66;4979988;28;20050;-48
2024/02/20 01:10:06;;;;;;;9.90;3.28;;;;;;;7.87;73.04;101455.03;4989084;28;20519;-49
2024/02/20 01:12:33;;;;;;;11.30;3.25;;;;;;;7.86;74.15;101452.44;4986722;28;20046;-53
2024/02/20 01:15:00;;;;;;;20.08;3.25;;;;;;;7.84;73.43;101449.81;4990165;28;20145;-49
2024/02/20 01:17:28;;;;;;;13.85;2.55;;;;;;;7.84;73.12;101445.50;4988259;28;20061;-45
2024/02/20 01:19:54;;;;;;;10.55;3.58;;;;;;;7.82;73.55;101441.13;4983777;28;20135;-47
2024/02/20 01:22:21;;;;;;;11.52;3.78;;;;;;;7.81;73.05;101439.38;4988364;28;20060;-45
2024/02/20 01:24:48;;;;;;;15.65;4.15;;;;;;;7.80;74.32;101425.59;4988470;28;20057;-45
2024/02/20 01:27:16;;;;;;;16.27;2.45;;;;;;;7.80;73.79;101427.31;4989504;28;20050;-46
2024/02/20 01:29:45;;;;;;;10.05;3.08;;;;;;;7.79;74.11;101415.22;4989425;28;20061;-48
2024/02/20 01:32:13;;;;;;;10.80;1.88;;;;;;;7.78;74.24;101413.50;4989426;28;20046;-45
2024/02/20 01:34:41;;;;;;;10.52;3.30;;;;;;;7.73;73.76;101408.19;4988155;28;20042;-49
2024/02/20 01:37:09;;;;;;;10.32;3.40;;;;;;;7.69;74.06;101414.97;4989316;28;20543;-46
2024/02/20 01:39:36;;;;;;;11.73;4.00;;;;;;;7.72;74.70;101415.06;4987042;28;20146;-47
2024/02/20 01:42:03;;;;;;;12.45;2.50;;;;;;;7.71;74.01;101413.28;4988584;28;20053;-51
2024/02/20 01:44:32;;;;;;;12.43;3.42;;;;;;;7.70;74.33;101414.13;4988951;28;20058;-45
2024/02/20 01:47:01;;;;;;;18.92;3.83;;;;;;;7.69;73.97;101421.81;4972188;28;20054;-45
2024/02/20 01:49:28;;;;;;;14.23;3.17;;;;;;;7.68;74.07;101413.22;4988188;28;20054;-44
2024/02/20 01:51:58;;;;;;;14.70;3.50;;;;;;;7.66;74.26;101412.28;4988970;28;20046;-48
2024/02/20 01:54:25;;;;;;;15.13;3.50;;;;;;;7.67;73.69;101400.28;4986298;28;20109;-45
2024/02/20 01:56:52;;;;;;;12.85;2.80;;;;;;;7.67;73.48;101400.28;4982968;28;20488;-48
2024/02/20 01:59:20;;;;;;;13.90;1.77;;;;;;;7.66;74.91;101399.38;4985954;28;20054;-45
2024/02/20 02:01:48;;;;;;;17.67;1.60;;;;;;;7.66;73.62;101394.22;4986985;28;20761;-49
2024/02/20 02:04:17;;;;;;;18.77;4.10;;;;;;;7.63;74.22;101388.97;4988892;28;20112;-48
2024/02/20 02:06:44;;;;;;;16.10;3.15;;;;;;;7.63;74.66;101383.81;4988681;28;20229;-45
2024/02/20 02:09:12;;;;;;;13.15;1.52;;;;;;;7.64;74.47;101382.13;4983679;28;20054;-46
2024/02/20 02:11:39;;;;;;;12.02;3.53;;;;;;;7.62;73.95;101382.06;4986988;28;20046;-45
2024/02/20 02:14:07;;;;;;;15.55;3.92;;;;;;;7.61;74.63;101374.28;4988606;28;20492;-48
2024/02/20 02:16:33;;;;;;;10.98;3.20;;;;;;;7.59;74.10;101372.53;4980928;28;20051;-46
2024/02/20 02:19:00;;;;;;;14.57;3.67;;;;;;;7.59;73.65;101372.53;4986591;28;20053;-47
2024/02/20 02:21:28;;;;;;;13.45;3.30;;;;;;;7.58;74.46;101375.06;4988281;28;20054;-48
2024/02/20 02:23:55;;;;;;;14.40;3.58;;;;;;;7.57;73.84;101373.31;4988935;28;20054;-51
2024/02/20 02:26:22;;;;;;;13.32;3.40;;;;;;;7.56;74.19;101366.41;4987081;28;20046;-46
2024/02/20 02:28:49;;;;;;;12.18;1.95;;;;;;;7.55;75.25;101369.81;4987900;28;20464;-47
2024/02/20 02:31:16;;;;;;;10.13;3.13;;;;;;;7.53;74.94;101371.47;4985497;28;20053;-49
2024/02/20 02:33:45;;;;;;;10.75;3.83;;;;;;;7.50;74.77;101361.06;4984441;28;20057;-47
2024/02/20 02:36:14;;;;;;;11.10;1.50;;;;;;;7.46;74.40;101360.97;4988805;28;20381;-47
2024/02/20 02:38:40;;;;;;;15.07;3.25;;;;;;;7.43;73.67;101360.88;4986398;28;20062;-48
2024/02/20 02:41:07;;;;;;;8.82;1.65;;;;;;;7.39;74.07;101356.44;4987111;28;20416;-50
2024/02/20 02:43:34;;;;;;;12.43;1.55;;;;;;;7.36;74.84;101353.75;4988210;28;20056;-48
2024/02/20 02:46:01;;;;;;;10.68;4.15;;;;;;;7.32;74.72;101357.06;4988148;28;20074;-47
2024/02/20 02:48:27;;;;;;;15.05;3.58;;;;;;;7.30;74.98;101343.28;4986176;28;20054;-47
2024/02/20 02:50:54;;;;;;;12.77;3.13;;;;;;;7.28;75.23;101339.75;4986199;28;20050;-50
2024/02/20 02:53:21;;;;;;;6.70;2.88;;;;;;;7.25;75.41;101335.38;4987706;28;20133;-49
2024/02/20 02:55:48;;;;;;;16.25;3.83;;;;;;;7.24;75.41;101337.91;4987309;28;20054;-47
2024/02/20 02:58:15;;;;;;;9.60;3.60;;;;;;;7.19;74.40;101330.91;4986248;28;20050;-46
2024/02/20 03:00:43;;;;;;;10.10;3.42;;;;;;;7.16;74.44;101328.22;4984421;28;20050;-47
2024/02/20 03:03:10;;;;;;;12.90;1.63;;;;;;;7.12;74.76;101328.97;4984442;28;20385;-49
2024/02/20 03:05:37;;;;;;;8.00;3.10;;;;;;;7.08;73.97;101327.13;4987182;28;20096;-46
2024/02/20 03:08:06;;;;;;;15.00;3.80;;;;;;;7.04;75.32;101330.41;4986999;28;20050;-47
2024/02/20 03:10:32;;;;;;;13.90;4.32;;;;;;;7.00;74.49;101323.41;4985088;28;20065;-46
2024/02/20 03:12:59;;;;;;;14.07;2.95;;;;;;;6.98;74.40;101317.31;4983637;28;20503;-50
2024/02/20 03:15:26;;;;;;;10.43;3.47;;;;;;;6.96;75.25;101311.25;4984036;28;20058;-45
2024/02/20 03:17:52;;;;;;;11.27;3.53;;;;;;;6.95;75.28;101310.38;4990322;28;20058;-45
2024/02/20 03:20:21;;;;;;;14.75;2.97;;;;;;;6.94;75.02;101308.63;4986929;28;20077;-45
2024/02/20 03:22:48;;;;;;;9.90;3.33;;;;;;;6.90;74.85;101310.25;4987282;28;20082;-49
2024/02/20 03:25:15;;;;;;;13.73;3.78;;;;;;;6.89;74.90;101305.91;4986122;28;20050;-45
2024/02/20 03:27:42;;;;;;;10.23;3.30;;;;;;;6.89;74.58;101305.06;4986626;28;20510;-46
2024/02/20 03:30:11;;;;;;;9.07;3.53;;;;;;;6.87;74.83;101301.53;4987386;28;20130;-52
2024/02/20 03:32:37;;;;;;;13.18;3.72;;;;;;;6.83;75.90;101295.41;4975060;28;20054;-53
2024/02/20 03:35:10;;;;;;;10.20;1.33;;;;;;;6.83;75.50;101290.28;4987323;28;20400;-50
2024/02/20 03:37:38;;;;;;;9.77;3.22;;;;;;;6.80;75.91;101295.31;4982843;28;20054;-49
2024/02/20 03:40:06;;;;;;;14.43;4.18;;;;;;;6.78;75.42;101294.38;4986383;28;20471;-45
2024/02/20 03:42:32;;;;;;;20.52;4.43;;;;;;;6.76;75.06;101294.31;4982398;28;20525;-46
2024/02/20 03:44:59;;;;;;;9.80;2.63;;;;;;;6.73;75.31;101293.34;4987853;28;20050;-50
2024/02/20 03:47:26;;;;;;;6.13;2.38;;;;;;;6.68;75.54;101291.50;4987158;28;20046;-49
2024/02/20 03:49:55;;;;;;;10.90;3.70;;;;;;;6.67;76.47;101287.19;4983722;28;20130;-46
2024/02/20 03:52:22;;;;;;;13.68;1.63;;;;;;;6.64;75.55;101292.22;4983088;28;20455;-46
2024/02/20 03:54:49;;;;;;;10.82;3.85;;;;;;;6.64;76.10;101294.81;4983757;28;20065;-53
2024/02/20 03:57:16;;;;;;;6.95;3.10;;;;;;;6.61;75.41;101289.53;4986495;28;20105;-47
2024/02/20 03:59:43;;;;;;;11.90;5.22;;;;;;;6.60;75.16;101281.78;4985886;28;20050;-45
2024/02/20 04:02:10;;;;;;;11.02;3.33;;;;;;;6.58;76.56;101286.84;4983884;28;20043;-50
2024/02/20 04:04:37;;;;;;;13.52;2.70;;;;;;;6.57;75.77;101277.41;4986199;28;20179;-47
2024/02/20 04:07:03;;;;;;;8.18;3.75;;;;;;;6.55;76.46;101281.59;4985988;28;20050;-50
2024/02/20 04:09:30;;;;;;;13.57;3.30;;;;;;;6.54;75.18;101277.28;4983354;28;20052;-49
2024/02/20 04:11:57;;;;;;;13.35;3.20;;;;;;;6.52;76.10;101273.81;4986993;28;20042;-45
2024/02/20 04:14:24;;;;;;;19.48;3.72;;;;;;;6.51;75.70;101275.50;4986681;28;20076;-48
2024/02/20 04:16:51;;;;;;;4.82;2.72;;;;;;;6.49;76.09;101271.13;4986280;28;20518;-47
2024/02/20 04:19:18;;;;;;;12.13;2.45;;;;;;;6.49;76.54;101273.69;4984842;28;20462;-48
2024/02/20 04:21:45;;;;;;;7.05;3.28;;;;;;;6.49;76.78;101271.13;4989202;28;20173;-50
2024/02/20 04:24:12;;;;;;;13.23;3.88;;;;;;;6.49;76.40;101265.97;4990897;28;20054;-47
2024/02/20 04:26:39;;;;;;;10.02;3.33;;;;;;;6.48;76.20;101259.09;4990714;28;20069;-48
2024/02/20 04:29:06;;;;;;;15.35;4.22;;;;;;;6.51;76.34;101266.88;4989986;28;20116;-52
2024/02/20 04:31:35;;;;;;;10.55;1.73;;;;;;;6.52;75.41;101271.22;4989046;28;20407;-46
2024/02/20 04:34:03;;;;;;;15.95;4.03;;;;;;;6.54;76.84;101267.88;4987980;28;20096;-46
2024/02/20 04:36:30;;;;;;;12.95;3.75;;;;;;;6.56;77.05;101262.78;4990555;28;20054;-48
2024/02/20 04:38:58;;;;;;;11.30;4.03;;;;;;;6.57;77.07;101256.81;4990575;28;20058;-50
2024/02/20 04:41:25;;;;;;;7.60;2.90;;;;;;;6.60;76.88;101259.50;4988867;28;20558;-47
2024/02/20 04:43:54;;;;;;;16.00;3.70;;;;;;;6.61;76.15;101256.06;4996876;28;20136;-45
2024/02/20 04:46:21;;;;;;;12.65;3.63;;;;;;;6.63;76.11;101261.28;4989140;28;20361;-47
2024/02/20 04:48:49;;;;;;;17.60;4.18;;;;;;;6.65;77.15;101260.50;4989727;28;20050;-49
2024/02/20 04:51:15;;;;;;;9.45;4.00;;;;;;;6.66;76.35;101248.50;4989161;28;20054;-50
2024/02/20 04:53:42;;;;;;;10.25;3.80;;;;;;;6.67;76.95;101251.16;4990298;28;20047;-45
2024/02/20 04:56:09;;;;;;;16.60;3.95;;;;;;;6.66;76.68;101244.22;4989731;28;20109;-44
2024/02/20 04:58:35;;;;;;;15.82;2.25;;;;;;;6.67;76.80;101237.38;4987588;28;20051;-45
2024/02/20 05:01:04;;;;;;;14.15;3.70;;;;;;;6.66;76.81;101231.34;4987358;28;20601;-48
2024/02/20 05:03:31;;;;;;;11.25;4.00;;;;;;;6.68;77.37;101232.28;4987118;28;20046;-47
2024/02/20 05:06:01;;;;;;;13.55;4.78;;;;;;;6.66;75.83;101226.19;4988137;28;20062;-48
2024/02/20 05:08:28;;;;;;;10.05;4.28;;;;;;;6.63;77.25;101215.81;4989932;28;20045;-47
2024/02/20 05:10:55;;;;;;;13.25;4.50;;;;;;;6.62;77.57;101219.19;4989754;28;20167;-47
2024/02/20 05:13:23;;;;;;;18.48;4.47;;;;;;;6.60;76.95;101210.56;4989355;28;20058;-51
2024/02/20 05:15:50;;;;;;;21.67;4.63;;;;;;;6.58;76.59;101211.34;4984193;28;20133;-49
2024/02/20 05:18:17;;;;;;;14.10;4.22;;;;;;;6.54;75.99;101210.34;4988637;28;20057;-49
2024/02/20 05:20:44;;;;;;;18.33;3.95;;;;;;;6.51;76.40;101200.84;4988777;28;20050;-45
2024/02/20 05:23:10;;;;;;;12.75;4.38;;;;;;;6.47;76.86;101198.09;4990438;28;20046;-47
2024/02/20 05:25:37;;;;;;;20.27;4.43;;;;;;;6.46;76.33;101198.94;4986435;28;20058;-47
2024/02/20 05:28:04;;;;;;;11.07;4.22;;;;;;;6.42;77.83;101201.41;4988896;28;20101;-47
2024/02/20 05:30:31;;;;;;;24.30;3.97;;;;;;;6.41;77.05;101201.34;4986185;28;20458;-48
2024/02/20 05:32:58;;;;;;;10.65;4.18;;;;;;;6.40;77.21;101197.03;4988772;28;20054;-51
2024/02/20 05:35:24;;;;;;;13.23;4.32;;;;;;;6.39;76.54;101190.16;4989102;28;20058;-46
2024/02/20 05:37:51;;;;;;;17.73;3.17;;;;;;;6.37;76.95;101192.66;4986251;28;20049;-51
2024/02/20 05:40:18;;;;;;;13.20;3.70;;;;;;;6.37;76.97;101192.66;4990592;28;20046;-46
2024/02/20 05:42:45;;;;;;;14.82;3.80;;;;;;;6.35;76.47;101189.16;4988216;28;20058;-46
2024/02/20 05:45:13;;;;;;;11.32;3.88;;;;;;;6.35;77.14;101199.44;4987306;28;20065;-46
2024/02/20 05:47:41;;;;;;;14.35;3.67;;;;;;;6.35;77.14;101189.16;4986671;28;20104;-49
2024/02/20 05:50:10;;;;;;;14.43;2.70;;;;;;;6.36;77.35;101185.78;4986002;28;20401;-47
2024/02/20 05:52:38;;;;;;;14.50;4.10;;;;;;;6.35;77.70;101183.16;4988480;28;20129;-52
2024/02/20 05:55:06;;;;;;;11.85;3.63;;;;;;;6.36;77.47;101180.63;4982964;28;20050;-47
2024/02/20 05:57:34;;;;;;;12.10;4.10;;;;;;;6.35;76.65;101178.88;4988582;28;20133;-44
2024/02/20 06:00:01;;;;;;;11.80;3.75;;;;;;;6.34;77.71;101173.66;4985807;28;20058;-44
2024/02/20 06:02:29;;;;;;;11.32;3.88;;;;;;;6.32;77.59;101176.22;4987762;28;20057;-49
2024/02/20 06:05:00;;;;;;;9.30;2.42;;;;;;;6.31;76.38;101171.88;4985158;28;20050;-48
2024/02/20 06:07:30;;;;;;;14.00;3.85;;;;;;;6.29;77.48;101171.81;4981274;28;20129;-48
2024/02/20 06:09:57;;;;;;;12.77;3.40;;;;;;;6.29;76.41;101178.69;4988706;28;20073;-51
2024/02/20 06:12:23;;;;;;;14.52;3.80;;;;;;;6.27;77.38;101170.03;4987820;28;20443;-46
2024/02/20 06:14:50;;;;;;;20.85;5.45;;;;;;;6.27;77.97;101175.16;4989126;28;20053;-46
2024/02/20 06:17:17;;;;;;;15.68;4.22;;;;;;;6.25;77.29;101166.53;4988153;28;20526;-49
2024/02/20 06:19:45;;;;;;;16.58;3.60;;;;;;;6.24;77.89;101164.78;4988148;28;20124;-51
2024/02/20 06:22:12;;;;;;;16.38;4.25;;;;;;;6.22;76.76;101167.31;4986245;28;20077;-49
2024/02/20 06:24:38;;;;;;;15.82;4.25;;;;;;;6.23;77.49;101163.03;4982547;28;20046;-48
2024/02/20 06:27:07;;;;;;;11.68;4.65;;;;;;;6.22;77.69;101162.19;4986821;28;20046;-45
2024/02/20 06:29:36;;;;;;;21.27;4.72;;;;;;;6.22;77.53;101169.00;4988217;28;20050;-49
2024/02/20 06:32:05;;;;;;;16.08;4.65;;;;;;;6.22;76.79;101166.44;4987081;28;20104;-45
2024/02/20 06:34:33;;;;;;;12.13;3.97;;;;;;;6.22;77.90;101167.31;4986264;28;20150;-43
2024/02/20 06:37:00;;;;;;;9.93;3.47;;;;;;;6.20;78.23;101162.91;4986909;28;20149;-50
2024/02/20 06:39:28;;;;;;;17.58;4.13;;;;;;;6.21;78.98;101168.13;4986424;28;20057;-43
2024/02/20 06:41:56;;;;;;;14.35;3.80;;;;;;;6.23;77.51;101168.19;4988314;28;20137;-49
2024/02/20 06:44:26;;;;;;;13.27;4.47;;;;;;;6.23;78.24;101163.03;4985392;28;20042;-45
2024/02/20 06:46:53;;;;;;;8.88;1.83;;;;;;;6.28;78.61;101156.31;4983773;28;20462;-46
2024/02/20 06:49:19;;;;;;;21.77;8.18;;;;;;;6.32;78.98;101155.63;4982989;28;20050;-47
2024/02/20 06:51:46;;;;;;;18.42;5.65;;;;;;;6.33;78.17;101154.81;4986943;28;20057;-46
2024/02/20 06:54:13;;;;;;;17.35;3.80;;;;;;;6.37;78.69;101151.50;4988479;28;20039;-48
2024/02/20 06:56:39;;;;;;;5.93;3.42;;;;;;;6.38;78.79;101142.94;4981769;28;20062;-46
2024/02/20 06:59:07;;;;;;;14.50;4.13;;;;;;;6.41;78.89;101143.06;4987691;28;20046;-44
2024/02/20 07:01:34;;;;;;;18.95;4.00;;;;;;;6.41;78.53;101137.91;4981633;28;20050;-48
2024/02/20 07:04:02;;;;;;;10.98;3.88;;;;;;;6.41;77.09;101122.47;4980314;28;20492;-44
2024/02/20 07:06:33;;;;;;;;;;;;;;;6.34;77.63;101130.81;4988026;28;20054;-50
2024/02/20 07:09:00;;;;;;;9.43;3.30;;;;;;;6.37;79.13;101120.63;4986577;28;20025;-44
2024/02/20 07:11:27;;;;;;;12.50;3.83;;;;;;;6.42;78.84;101108.75;4987093;28;20042;-47
2024/02/20 07:13:55;;;;;;;11.13;3.03;;;;;;;6.48;79.41;101112.38;4987773;28;20045;-51
2024/02/20 07:16:26;;;;;;;21.13;4.75;;;;;;;6.55;79.46;101119.44;4982426;28;20137;-49
2024/02/20 07:18:53;;;;;;;18.60;4.05;;;;;;;6.59;79.30;101121.31;4985928;28;20133;-50
2024/02/20 07:21:20;;;;;;;12.27;4.53;;;;;;;6.62;79.16;101118.81;4987132;28;20054;-48
2024/02/20 07:23:46;;;;;;;15.57;4.32;;;;;;;6.65;79.32;101110.28;4985933;28;20053;-45
2024/02/20 07:26:13;;;;;;;20.20;3.03;;;;;;;6.66;77.58;101106.91;4987124;28;20057;-48
2024/02/20 07:28:41;;;;;;;19.60;3.63;;;;;;;6.67;77.86;101113.81;4986910;28;20066;-47
2024/02/20 07:31:09;;;;;;;10.25;4.25;;;;;;;6.68;79.34;101116.44;4984406;28;20133;-47
2024/02/20 07:33:36;;;;;;;14.07;4.00;;;;;;;6.65;80.14;101126.63;4983431;28;20137;-48
2024/02/20 07:36:04;;;;;;;12.88;4.25;;;;;;;6.69;79.02;101118.16;4986370;28;20129;-43
2024/02/20 07:38:31;;;;;;;11.55;3.58;;;;;;;6.73;78.95;101128.56;4986848;28;20054;-48
2024/02/20 07:41:02;;;;;;;11.07;3.70;;;;;;;6.79;78.50;101115.88;4987156;28;20566;-50
2024/02/20 07:43:30;;;;;;;14.50;4.15;;;;;;;6.85;78.83;101123.78;4986547;28;20055;-44
2024/02/20 07:45:59;;;;;;;18.92;3.92;;;;;;;6.90;78.05;101116.19;4977767;28;20173;-48
2024/02/20 07:48:26;;;;;;;16.27;3.47;;;;;;;6.92;78.80;101115.41;4986948;28;20050;-44
2024/02/20 07:50:53;;;;;;;9.27;2.13;;;;;;;6.97;78.01;101107.81;4986689;28;20514;-48
2024/02/20 07:53:20;;;;;;;11.82;3.55;;;;;;;7.01;79.41;101098.47;4981397;28;20050;-49
2024/02/20 07:55:48;;;;;;;13.38;3.78;;;;;;;7.03;78.47;101104.56;4987935;28;20065;-47
2024/02/20 07:58:15;;;;;;;14.55;3.83;;;;;;;7.07;78.14;101089.22;4983565;28;20086;-51
2024/02/20 08:00:45;;;;;;;12.77;2.00;;;;;;;7.11;78.35;101095.34;4988275;28;20442;-46
2024/02/20 08:03:13;;;;;;;10.85;3.67;;;;;;;7.14;79.17;101095.44;4991249;28;20108;-47
2024/02/20 08:05:41;;;;;;;11.15;3.72;;;;;;;7.18;78.62;101086.97;4990788;28;20046;-49
2024/02/20 08:08:08;;;;;;;11.63;3.60;;;;;;;7.23;78.23;101092.22;4989449;28;20096;-44
2024/02/20 08:10:35;;;;;;;14.43;4.18;;;;;;;7.27;77.99;101085.47;4989518;28;20046;-46
2024/02/20 08:13:03;;;;;;;14.00;1.88;;;;;;;7.30;79.67;101082.97;4985141;28;20479;-54
2024/02/20 08:15:29;;;;;;;12.13;3.35;;;;;;;7.33;79.31;101067.59;4990391;28;20058;-48
2024/02/20 08:17:56;;;;;;;13.52;3.20;;;;;;;7.37;78.89;101071.13;4990727;28;20057;-45
2024/02/20 08:20:23;;;;;;;5.68;3.63;;;;;;;7.41;78.55;101066.09;4988829;28;20534;-47
2024/02/20 08:22:50;;;;;;;10.65;2.85;;;;;;;7.46;79.21;101067.09;4986185;28;20054;-50
2024/02/20 08:25:16;;;;;;;13.90;3.97;;;;;;;7.50;78.87;101067.16;4990206;28;20053;-48
2024/02/20 08:27:43;;;;;;;11.10;2.85;;;;;;;7.53;79.40;101062.09;4990646;28;20050;-49
2024/02/20 08:30:11;;;;;;;10.88;3.55;;;;;;;7.58;78.84;101056.22;4988524;28;20051;-48
2024/02/20 08:32:43;;;;;;;8.48;1.50;;;;;;;7.63;79.60;101051.19;4990116;28;20404;-47
2024/02/20 08:35:12;;;;;;;3.67;2.90;;;;;;;7.65;79.20;101048.63;4979400;28;20050;-48
2024/02/20 08:37:39;;;;;;;10.35;3.10;;;;;;;7.68;79.38;101052.19;4989318;28;20081;-46
2024/02/20 08:40:08;;;;;;;9.95;2.75;;;;;;;7.72;79.15;101056.59;4990345;28;20088;-46
2024/02/20 08:42:34;;;;;;;7.90;2.72;;;;;;;7.74;80.06;101045.44;4991311;28;20053;-47
2024/02/20 08:45:03;;;;;;;4.72;2.13;;;;;;;7.79;79.65;101049.88;4996605;28;20053;-47
2024/02/20 08:47:32;;;;;;;8.35;2.42;;;;;;;7.82;80.50;101049.06;4990141;28;20101;-53
2024/02/20 08:49:59;;;;;;;7.63;3.55;;;;;;;7.88;79.87;101049.22;4985048;28;20140;-48
2024/02/20 08:52:25;;;;;;;6.38;2.72;;;;;;;7.93;80.18;101037.31;4986246;28;20057;-50
2024/02/20 08:54:52;;;;;;;8.18;3.33;;;;;;;8.01;80.22;101039.19;4989877;28;20050;-50
2024/02/20 08:57:22;;;;;;;7.18;2.60;;;;;;;8.07;79.59;101035.03;4990482;28;20200;-43
2024/02/20 08:59:50;;;;;;;5.70;2.88;;;;;;;8.13;80.32;101018.84;4988889;28;20058;-47
2024/02/20 09:02:17;;;;;;;5.25;2.63;;;;;;;8.19;80.25;101024.16;4987927;28;20088;-48
2024/02/20 09:04:44;;;;;;;3.92;2.80;;;;;;;8.25;79.72;101007.06;4989487;28;20796;-51
2024/02/20 09:07:11;;;;;;;9.35;2.90;;;;;;;8.28;80.61;100999.38;4989036;28;20646;-49
2024/02/20 09:09:38;;;;;;;5.65;1.08;;;;;;;8.40;80.17;101002.22;4987399;28;20418;-48
2024/02/20 09:12:05;;;;;;;4.97;1.50;;;;;;;8.57;80.14;100988.81;4990446;28;20054;-48
2024/02/20 09:14:31;;;;;;;7.78;3.25;;;;;;;8.83;80.20;100991.06;4989257;28;20474;-49
2024/02/20 09:16:58;;;;;;;2.60;1.05;;;;;;;9.11;79.75;100992.47;4988972;28;20047;-48
2024/02/20 09:19:25;;;;;;;2.38;1.17;;;;;;;9.31;78.97;100993.66;4989581;28;20057;-46
2024/02/20 09:21:52;;;;;;;4.60;1.38;;;;;;;9.52;79.18;100988.00;4987368;28;20054;-49
2024/02/20 09:24:19;;;;;;;2.97;1.65;;;;;;;9.67;79.28;100987.41;4987476;28;20053;-48
2024/02/20 09:26:45;;;;;;;10.43;1.95;;;;;;;10.05;78.46;100977.59;4986628;28;20559;-48
2024/02/20 09:29:12;;;;;;;14.95;4.15;;;;;;;10.85;78.49;100964.84;4994343;28;20046;-46
2024/02/20 09:31:39;;;;;;;3.78;2.92;;;;;;;11.55;76.83;100955.09;4989149;28;20057;-47
2024/02/20 09:34:05;;;;;;;3.97;1.08;;;;;;;11.80;76.43;100950.09;4985618;28;20520;-46
2024/02/20 09:36:32;;;;;;;3.63;2.17;;;;;;;11.82;74.38;100948.34;4982520;28;20508;-47
2024/02/20 09:39:03;;;;;;;4.25;1.13;;;;;;;11.72;74.34;100951.75;4991553;28;20057;-48
2024/02/20 09:41:35;;;;;;;4.35;0.85;;;;;;;11.55;74.45;100944.72;4988915;28;20062;-49
2024/02/20 09:44:03;;;;;;;5.47;1.20;;;;;;;11.60;74.23;100949.06;4989086;28;20047;-49
2024/02/20 09:46:40;;;;;;;4.60;1.80;;;;;;;11.77;75.85;100950.06;4983900;28;20061;-46
2024/02/20 09:49:09;;;;;;;8.00;1.92;;;;;;;12.18;74.94;100939.94;4987698;28;20057;-49
2024/02/20 09:51:37;;;;;;;5.50;1.20;;;;;;;12.45;74.70;100938.31;4986850;28;20055;-46
2024/02/20 09:54:05;;;;;;;3.13;1.17;;;;;;;12.64;73.71;100933.19;4987505;28;20507;-49
2024/02/20 09:56:35;;;;;;;2.72;1.52;;;;;;;12.74;73.36;100924.56;4987027;28;20054;-48
2024/02/20 09:59:02;;;;;;;4.65;1.38;;;;;;;12.83;72.52;100918.50;4988006;28;20065;-47
2024/02/20 10:01:31;;;;;;;7.25;1.83;;;;;;;13.03;72.97;100925.47;4986296;28;20057;-48
2024/02/20 10:04:02;;;;;;;;;;;;;;;12.78;71.90;100917.63;4989399;28;20038;-44
2024/02/20 10:06:33;;;;;;;5.85;2.78;;;;;;;12.66;71.94;100921.09;4988404;28;20342;-47
2024/02/20 10:09:01;;;;;;;5.35;1.20;;;;;;;12.53;72.62;100914.97;4988131;28;20073;-50
2024/02/20 10:11:28;;;;;;;2.03;1.08;;;;;;;12.46;73.17;100934.84;4988321;28;20046;-43
2024/02/20 10:13:55;;;;;;;4.47;1.63;;;;;;;12.44;73.94;100915.81;4988751;28;20574;-47
2024/02/20 10:16:22;;;;;;;3.72;1.10;;;;;;;12.88;73.24;100923.72;4987750;28;20050;-51
2024/02/20 10:18:59;;;;;;;2.67;1.52;;;;;;;12.79;72.54;100933.22;4984268;28;20482;-48
2024/02/20 10:21:27;;;;;;;3.08;1.65;;;;;;;12.62;71.94;100937.50;4983775;28;20058;-45
2024/02/20 10:24:03;;;;;;;2.67;0.68;;;;;;;12.38;72.07;100936.56;4984886;28;20042;-47
2024/02/20 10:26:34;;;;;;;6.40;1.25;;;;;;;12.29;72.89;100930.47;4987362;28;20057;-46
2024/02/20 10:29:02;;;;;;;2.47;0.95;;;;;;;12.52;73.55;100934.88;4986600;28;20050;-47
2024/02/20 10:31:30;;;;;;;5.70;2.65;;;;;;;13.05;73.15;100911.59;4987677;28;20087;-47
2024/02/20 10:33:57;;;;;;;1.70;0.60;;;;;;;13.94;72.92;100905.44;4983541;28;20049;-45
2024/02/20 10:36:38;;;;;;;2.25;0.65;;;;;;;14.36;70.67;100892.28;4988232;28;20050;-50
2024/02/20 10:39:05;;;;;;;3.38;1.02;;;;;;;14.76;69.87;100907.69;4986486;28;20053;-44
2024/02/20 10:41:33;;;;;;;0.95;0.52;;;;;;;14.68;68.42;100925.13;4981479;28;20656;-44
2024/02/20 10:44:00;;;;;;;2.45;0.55;;;;;;;14.44;68.46;100926.13;4988251;28;20038;-47
2024/02/20 10:46:28;;;;;;;1.67;0.32;;;;;;;14.18;68.18;100920.13;4987860;28;20141;-48
2024/02/20 10:48:59;;;;;;;2.92;0.77;;;;;;;13.94;68.00;100926.28;4984003;28;20046;-50
2024/02/20 10:51:28;;;;;;;3.58;0.90;;;;;;;13.76;69.02;100922.88;4982968;28;20057;-45
2024/02/20 10:53:56;;;;;;;2.95;0.77;;;;;;;13.53;68.90;100910.75;4986331;28;20069;-47
2024/02/20 10:56:25;;;;;;;3.15;0.95;;;;;;;13.32;69.78;100922.91;4981875;28;20098;-51
2024/02/20 10:58:54;;;;;;;1.85;0.80;;;;;;;13.23;69.28;100933.28;4986665;28;20194;-46
2024/02/20 11:01:23;;;;;;;3.35;0.88;;;;;;;13.23;70.20;100928.06;4985815;28;20100;-45
2024/02/20 11:03:50;;;;;;;;;;;;;;;13.13;69.12;100944.56;4987942;28;20409;-46
2024/02/20 11:06:31;;;;;;;3.60;0.77;;;;;;;13.24;69.84;100919.41;4988071;28;19926;-47
2024/02/20 11:09:10;;;;;;;2.15;0.70;;;;;;;13.26;70.34;100930.69;4986079;28;20148;-52
2024/02/20 11:11:37;;;;;;;1.63;0.82;;;;;;;13.25;69.83;100936.75;4986774;28;20072;-51
2024/02/20 11:14:03;;;;;;;2.65;1.80;;;;;;;13.21;69.73;100956.69;4987236;28;20450;-51
2024/02/20 11:16:35;;;;;;;1.23;0.75;;;;;;;13.14;69.14;100954.09;4979016;28;20138;-49
2024/02/20 11:19:03;;;;;;;1.52;0.80;;;;;;;13.14;69.49;100954.94;4987526;28;20073;-50
2024/02/20 11:21:32;;;;;;;1.45;0.77;;;;;;;13.18;69.84;100950.63;4986493;28;20161;-49
2024/02/20 11:24:16;;;;;;;1.50;0.68;;;;;;;13.16;69.42;100947.16;4985133;28;20084;-47
2024/02/20 11:26:51;;;;;;;1.40;1.13;;;;;;;13.08;69.10;100935.00;4982845;28;20046;-48
2024/02/20 11:29:34;;;;;;;1.92;0.90;;;;;;;13.00;69.71;100941.06;4984863;28;20053;-47